sensor_id;sensor_type;location;lat;lon;timestamp;P1;durP1;ratioP1;P2;durP2;ratioP2
23768;SDS011;12064;50.890;5.424;2023-09-12T00:01:56;5.45;;;4.95;;
23768;SDS011;12064;50.890;5.424;2023-09-12T00:10:46;4.87;;;4.47;;
23768;SDS011;12064;50.890;5.424;2023-09-12T00:19:37;5.10;;;4.70;;
23768;SDS011;12064;50.890;5.424;2023-09-12T00:28:30;5.38;;;4.95;;
23768;SDS011;12064;50.890;5.424;2023-09-12T00:37:20;4.70;;;4.30;;
23768;SDS011;12064;50.890;5.424;2023-09-12T00:46:13;5.30;;;4.80;;
23768;SDS011;12064;50.890;5.424;2023-09-12T00:55:09;5.00;;;4.60;;
23768;SDS011;12064;50.890;5.424;2023-09-12T01:04:00;5.07;;;4.68;;
23768;SDS011;12064;50.890;5.424;2023-09-12T01:12:53;4.90;;;4.50;;
23768;SDS011;12064;50.890;5.424;2023-09-12T01:30:58;4.78;;;4.38;;
23768;SDS011;12064;50.890;5.424;2023-09-12T01:39:51;4.90;;;4.50;;
23768;SDS011;12064;50.890;5.424;2023-09-12T01:48:42;4.90;;;4.50;;
23768;SDS011;12064;50.890;5.424;2023-09-12T01:57:34;5.20;;;4.70;;
23768;SDS011;12064;50.890;5.424;2023-09-12T02:06:26;4.90;;;4.50;;
23768;SDS011;12064;50.890;5.424;2023-09-12T02:15:20;5.30;;;4.80;;
23768;SDS011;12064;50.890;5.424;2023-09-12T02:24:11;5.22;;;4.70;;
23768;SDS011;12064;50.890;5.424;2023-09-12T02:33:01;5.43;;;4.90;;
23768;SDS011;12064;50.890;5.424;2023-09-12T02:41:52;6.00;;;5.10;;
23768;SDS011;12064;50.890;5.424;2023-09-12T02:50:43;6.20;;;5.60;;
23768;SDS011;12064;50.890;5.424;2023-09-12T02:59:35;5.35;;;4.85;;
23768;SDS011;12064;50.890;5.424;2023-09-12T03:08:26;6.68;;;5.38;;
23768;SDS011;12064;50.890;5.424;2023-09-12T03:17:16;6.63;;;5.37;;
23768;SDS011;12064;50.890;5.424;2023-09-12T03:26:08;6.50;;;5.10;;
23768;SDS011;12064;50.890;5.424;2023-09-12T03:34:58;6.35;;;5.57;;
23768;SDS011;12064;50.890;5.424;2023-09-12T03:43:49;7.45;;;5.68;;
23768;SDS011;12064;50.890;5.424;2023-09-12T03:52:40;6.83;;;5.90;;
23768;SDS011;12064;50.890;5.424;2023-09-12T04:01:30;7.40;;;5.95;;
23768;SDS011;12064;50.890;5.424;2023-09-12T04:10:21;7.90;;;5.77;;
23768;SDS011;12064;50.890;5.424;2023-09-12T04:19:13;6.50;;;5.67;;
23768;SDS011;12064;50.890;5.424;2023-09-12T04:28:04;8.27;;;6.20;;
23768;SDS011;12064;50.890;5.424;2023-09-12T04:36:55;10.52;;;8.50;;
23768;SDS011;12064;50.890;5.424;2023-09-12T04:45:45;12.50;;;8.70;;
23768;SDS011;12064;50.890;5.424;2023-09-12T04:54:36;10.93;;;8.63;;
23768;SDS011;12064;50.890;5.424;2023-09-12T05:03:27;11.03;;;7.90;;
23768;SDS011;12064;50.890;5.424;2023-09-12T05:12:17;11.53;;;8.83;;
23768;SDS011;12064;50.890;5.424;2023-09-12T05:21:08;9.85;;;6.75;;
23768;SDS011;12064;50.890;5.424;2023-09-12T05:30:02;7.13;;;5.72;;
23768;SDS011;12064;50.890;5.424;2023-09-12T05:38:56;7.35;;;5.88;;
23768;SDS011;12064;50.890;5.424;2023-09-12T05:47:47;7.73;;;6.03;;
23768;SDS011;12064;50.890;5.424;2023-09-12T05:56:38;6.47;;;5.38;;
23768;SDS011;12064;50.890;5.424;2023-09-12T06:05:28;5.93;;;5.35;;
23768;SDS011;12064;50.890;5.424;2023-09-12T06:14:19;6.63;;;5.60;;
23768;SDS011;12064;50.890;5.424;2023-09-12T06:23:10;6.13;;;5.50;;
23768;SDS011;12064;50.890;5.424;2023-09-12T06:32:00;6.00;;;5.50;;
23768;SDS011;12064;50.890;5.424;2023-09-12T06:40:52;5.97;;;5.13;;
23768;SDS011;12064;50.890;5.424;2023-09-12T06:49:42;5.65;;;5.15;;
23768;SDS011;12064;50.890;5.424;2023-09-12T06:58:34;5.67;;;5.17;;
23768;SDS011;12064;50.890;5.424;2023-09-12T07:07:28;5.82;;;5.32;;
23768;SDS011;12064;50.890;5.424;2023-09-12T07:16:18;6.37;;;5.03;;
23768;SDS011;12064;50.890;5.424;2023-09-12T07:25:10;5.85;;;5.25;;
23768;SDS011;12064;50.890;5.424;2023-09-12T07:34:03;6.15;;;5.55;;
23768;SDS011;12064;50.890;5.424;2023-09-12T07:42:54;6.85;;;5.43;;
23768;SDS011;12064;50.890;5.424;2023-09-12T07:51:48;5.88;;;5.38;;
23768;SDS011;12064;50.890;5.424;2023-09-12T08:00:38;6.10;;;5.50;;
23768;SDS011;12064;50.890;5.424;2023-09-12T08:09:48;5.80;;;5.30;;
23768;SDS011;12064;50.890;5.424;2023-09-12T08:18:39;5.60;;;5.10;;
23768;SDS011;12064;50.890;5.424;2023-09-12T08:27:29;5.47;;;4.97;;
23768;SDS011;12064;50.890;5.424;2023-09-12T08:36:20;4.72;;;4.43;;
23768;SDS011;12064;50.890;5.424;2023-09-12T08:45:15;5.30;;;4.90;;
23768;SDS011;12064;50.890;5.424;2023-09-12T08:54:09;5.47;;;5.05;;
23768;SDS011;12064;50.890;5.424;2023-09-12T09:03:00;5.00;;;4.60;;
23768;SDS011;12064;50.890;5.424;2023-09-12T09:11:52;5.18;;;4.78;;
23768;SDS011;12064;50.890;5.424;2023-09-12T09:20:43;4.97;;;4.50;;
23768;SDS011;12064;50.890;5.424;2023-09-12T09:29:46;4.83;;;4.43;;
23768;SDS011;12064;50.890;5.424;2023-09-12T09:38:38;4.88;;;4.47;;
23768;SDS011;12064;50.890;5.424;2023-09-12T09:47:30;4.90;;;4.60;;
23768;SDS011;12064;50.890;5.424;2023-09-12T09:56:22;4.53;;;4.22;;
23768;SDS011;12064;50.890;5.424;2023-09-12T10:05:12;4.80;;;4.40;;
23768;SDS011;12064;50.890;5.424;2023-09-12T10:14:04;4.20;;;3.90;;
23768;SDS011;12064;50.890;5.424;2023-09-12T10:23:00;4.63;;;4.22;;
23768;SDS011;12064;50.890;5.424;2023-09-12T10:32:01;4.30;;;4.00;;
23768;SDS011;12064;50.890;5.424;2023-09-12T10:40:52;4.57;;;4.20;;
23768;SDS011;12064;50.890;5.424;2023-09-12T10:49:45;4.40;;;4.10;;
23768;SDS011;12064;50.890;5.424;2023-09-12T11:07:58;4.70;;;4.40;;
23768;SDS011;12064;50.890;5.424;2023-09-12T11:26:04;4.47;;;4.18;;
23768;SDS011;12064;50.890;5.424;2023-09-12T11:34:56;4.40;;;4.10;;
23768;SDS011;12064;50.890;5.424;2023-09-12T11:43:48;4.55;;;4.25;;
23768;SDS011;12064;50.890;5.424;2023-09-12T11:52:39;4.63;;;4.32;;
23768;SDS011;12064;50.890;5.424;2023-09-12T12:01:30;4.10;;;3.80;;
23768;SDS011;12064;50.890;5.424;2023-09-12T12:10:23;4.38;;;4.07;;
23768;SDS011;12064;50.890;5.424;2023-09-12T12:19:14;4.47;;;4.18;;
23768;SDS011;12064;50.890;5.424;2023-09-12T12:28:04;4.27;;;3.97;;
23768;SDS011;12064;50.890;5.424;2023-09-12T12:36:55;4.40;;;4.10;;
23768;SDS011;12064;50.890;5.424;2023-09-12T12:45:56;4.05;;;3.75;;
23768;SDS011;12064;50.890;5.424;2023-09-12T12:54:51;4.35;;;4.05;;
23768;SDS011;12064;50.890;5.424;2023-09-12T13:03:44;4.05;;;3.75;;
23768;SDS011;12064;50.890;5.424;2023-09-12T13:12:35;4.18;;;3.88;;
23768;SDS011;12064;50.890;5.424;2023-09-12T13:21:27;4.22;;;3.92;;
23768;SDS011;12064;50.890;5.424;2023-09-12T13:30:18;4.30;;;4.00;;
23768;SDS011;12064;50.890;5.424;2023-09-12T13:39:09;4.50;;;4.20;;
23768;SDS011;12064;50.890;5.424;2023-09-12T13:48:03;4.30;;;4.00;;
23768;SDS011;12064;50.890;5.424;2023-09-12T13:56:55;4.30;;;4.00;;
23768;SDS011;12064;50.890;5.424;2023-09-12T14:05:46;3.88;;;3.58;;
23768;SDS011;12064;50.890;5.424;2023-09-12T14:14:37;4.03;;;3.73;;
23768;SDS011;12064;50.890;5.424;2023-09-12T14:23:28;4.00;;;3.70;;
23768;SDS011;12064;50.890;5.424;2023-09-12T14:32:18;3.70;;;3.50;;
23768;SDS011;12064;50.890;5.424;2023-09-12T14:41:11;4.00;;;3.80;;
23768;SDS011;12064;50.890;5.424;2023-09-12T14:50:03;4.10;;;3.80;;
23768;SDS011;12064;50.890;5.424;2023-09-12T14:58:54;3.78;;;3.58;;
23768;SDS011;12064;50.890;5.424;2023-09-12T15:07:45;3.70;;;3.50;;
23768;SDS011;12064;50.890;5.424;2023-09-12T15:16:36;3.60;;;3.40;;
23768;SDS011;12064;50.890;5.424;2023-09-12T15:25:27;3.97;;;3.67;;
23768;SDS011;12064;50.890;5.424;2023-09-12T15:34:20;3.87;;;3.67;;
23768;SDS011;12064;50.890;5.424;2023-09-12T15:43:11;4.00;;;3.75;;
23768;SDS011;12064;50.890;5.424;2023-09-12T15:52:02;3.63;;;3.43;;
23768;SDS011;12064;50.890;5.424;2023-09-12T16:00:53;3.60;;;3.40;;
23768;SDS011;12064;50.890;5.424;2023-09-12T16:09:45;4.60;;;4.07;;
23768;SDS011;12064;50.890;5.424;2023-09-12T16:18:37;4.65;;;4.13;;
23768;SDS011;12064;50.890;5.424;2023-09-12T16:27:27;6.78;;;4.22;;
23768;SDS011;12064;50.890;5.424;2023-09-12T16:36:18;6.47;;;4.77;;
23768;SDS011;12064;50.890;5.424;2023-09-12T16:45:09;6.20;;;4.50;;
23768;SDS011;12064;50.890;5.424;2023-09-12T16:54:00;6.38;;;5.40;;
23768;SDS011;12064;50.890;5.424;2023-09-12T17:02:50;11.13;;;7.33;;
23768;SDS011;12064;50.890;5.424;2023-09-12T17:11:41;7.27;;;6.57;;
23768;SDS011;12064;50.890;5.424;2023-09-12T17:20:32;7.75;;;6.90;;
23768;SDS011;12064;50.890;5.424;2023-09-12T17:29:26;9.82;;;6.60;;
23768;SDS011;12064;50.890;5.424;2023-09-12T17:38:17;7.47;;;5.22;;
23768;SDS011;12064;50.890;5.424;2023-09-12T17:47:09;6.10;;;4.53;;
23768;SDS011;12064;50.890;5.424;2023-09-12T17:56:00;9.15;;;4.18;;
23768;SDS011;12064;50.890;5.424;2023-09-12T18:04:50;5.87;;;4.20;;
23768;SDS011;12064;50.890;5.424;2023-09-12T18:13:41;7.28;;;3.97;;
23768;SDS011;12064;50.890;5.424;2023-09-12T18:22:33;6.60;;;3.92;;
23768;SDS011;12064;50.890;5.424;2023-09-12T18:31:24;4.85;;;4.30;;
23768;SDS011;12064;50.890;5.424;2023-09-12T18:40:15;5.05;;;3.83;;
23768;SDS011;12064;50.890;5.424;2023-09-12T18:49:07;6.05;;;4.47;;
23768;SDS011;12064;50.890;5.424;2023-09-12T18:57:57;6.60;;;4.27;;
23768;SDS011;12064;50.890;5.424;2023-09-12T19:06:51;6.30;;;3.72;;
23768;SDS011;12064;50.890;5.424;2023-09-12T19:15:42;4.82;;;3.20;;
23768;SDS011;12064;50.890;5.424;2023-09-12T19:24:34;3.35;;;2.50;;
23768;SDS011;12064;50.890;5.424;2023-09-12T19:33:24;3.40;;;2.05;;
23768;SDS011;12064;50.890;5.424;2023-09-12T19:42:16;3.17;;;2.17;;
23768;SDS011;12064;50.890;5.424;2023-09-12T19:51:07;3.85;;;2.28;;
23768;SDS011;12064;50.890;5.424;2023-09-12T19:59:58;2.27;;;1.83;;
23768;SDS011;12064;50.890;5.424;2023-09-12T20:08:48;2.72;;;2.00;;
23768;SDS011;12064;50.890;5.424;2023-09-12T20:17:40;2.83;;;1.77;;
23768;SDS011;12064;50.890;5.424;2023-09-12T20:26:31;4.03;;;1.77;;
23768;SDS011;12064;50.890;5.424;2023-09-12T20:35:26;3.25;;;2.35;;
23768;SDS011;12064;50.890;5.424;2023-09-12T20:44:18;2.15;;;1.77;;
23768;SDS011;12064;50.890;5.424;2023-09-12T20:53:08;2.73;;;2.17;;
23768;SDS011;12064;50.890;5.424;2023-09-12T21:02:03;2.25;;;1.85;;
23768;SDS011;12064;50.890;5.424;2023-09-12T21:10:54;2.42;;;2.15;;
23768;SDS011;12064;50.890;5.424;2023-09-12T21:19:45;3.95;;;2.38;;
23768;SDS011;12064;50.890;5.424;2023-09-12T21:28:36;2.67;;;2.30;;
23768;SDS011;12064;50.890;5.424;2023-09-12T21:37:26;3.97;;;2.90;;
23768;SDS011;12064;50.890;5.424;2023-09-12T21:46:17;3.83;;;2.80;;
23768;SDS011;12064;50.890;5.424;2023-09-12T21:55:08;4.35;;;2.83;;
23768;SDS011;12064;50.890;5.424;2023-09-12T22:03:58;3.22;;;2.92;;
23768;SDS011;12064;50.890;5.424;2023-09-12T22:12:49;3.53;;;2.88;;
23768;SDS011;12064;50.890;5.424;2023-09-12T22:21:40;3.17;;;2.88;;
23768;SDS011;12064;50.890;5.424;2023-09-12T22:30:31;4.68;;;3.35;;
23768;SDS011;12064;50.890;5.424;2023-09-12T22:39:24;4.97;;;3.60;;
23768;SDS011;12064;50.890;5.424;2023-09-12T22:48:15;4.00;;;3.58;;
23768;SDS011;12064;50.890;5.424;2023-09-12T22:57:06;5.75;;;3.60;;
23768;SDS011;12064;50.890;5.424;2023-09-12T23:05:58;4.80;;;3.70;;
23768;SDS011;12064;50.890;5.424;2023-09-12T23:14:50;4.95;;;3.80;;
23768;SDS011;12064;50.890;5.424;2023-09-12T23:23:44;6.30;;;3.90;;
23768;SDS011;12064;50.890;5.424;2023-09-12T23:32:35;5.72;;;4.30;;
23768;SDS011;12064;50.890;5.424;2023-09-12T23:41:26;6.38;;;4.43;;
23768;SDS011;12064;50.890;5.424;2023-09-12T23:50:17;5.90;;;4.43;;
23768;SDS011;12064;50.890;5.424;2023-09-12T23:59:08;7.45;;;5.00;;
